sensor_id;sensor_type;location;lat;lon;timestamp;temperature;humidity
18934;DHT22;9599;53.706;10.384;2023-03-01T00:01:33;-0.50;99.90
18934;DHT22;9599;53.706;10.384;2023-03-01T00:04:01;-0.50;99.90
18934;DHT22;9599;53.706;10.384;2023-03-01T00:06:29;-0.50;99.90
18934;DHT22;9599;53.706;10.384;2023-03-01T00:08:57;-0.50;99.90
18934;DHT22;9599;53.706;10.384;2023-03-01T00:11:27;-0.50;99.90
18934;DHT22;9599;53.706;10.384;2023-03-01T00:13:59;-0.60;99.90
18934;DHT22;9599;53.706;10.384;2023-03-01T00:16:29;-0.60;99.90
18934;DHT22;9599;53.706;10.384;2023-03-01T00:18:58;-0.60;99.90
18934;DHT22;9599;53.706;10.384;2023-03-01T00:21:27;-0.60;99.90
18934;DHT22;9599;53.706;10.384;2023-03-01T00:23:55;-0.60;99.90
18934;DHT22;9599;53.706;10.384;2023-03-01T00:26:24;-0.60;99.90
18934;DHT22;9599;53.706;10.384;2023-03-01T00:28:53;-0.60;99.90
18934;DHT22;9599;53.706;10.384;2023-03-01T00:31:26;-0.60;99.90
18934;DHT22;9599;53.706;10.384;2023-03-01T00:33:54;-0.60;99.90
18934;DHT22;9599;53.706;10.384;2023-03-01T00:36:24;-0.60;99.90
18934;DHT22;9599;53.706;10.384;2023-03-01T00:38:53;-0.60;99.90
18934;DHT22;9599;53.706;10.384;2023-03-01T00:41:21;-0.60;99.90
18934;DHT22;9599;53.706;10.384;2023-03-01T00:43:50;-0.60;99.90
18934;DHT22;9599;53.706;10.384;2023-03-01T00:46:20;-0.60;99.90
18934;DHT22;9599;53.706;10.384;2023-03-01T00:48:50;-0.60;99.90
18934;DHT22;9599;53.706;10.384;2023-03-01T00:51:20;-0.60;99.90
18934;DHT22;9599;53.706;10.384;2023-03-01T00:53:50;-0.60;99.90
18934;DHT22;9599;53.706;10.384;2023-03-01T00:56:18;-0.60;99.90
18934;DHT22;9599;53.706;10.384;2023-03-01T00:58:46;-0.60;99.90
18934;DHT22;9599;53.706;10.384;2023-03-01T01:01:17;-0.60;99.90
18934;DHT22;9599;53.706;10.384;2023-03-01T01:03:47;-0.60;99.90
18934;DHT22;9599;53.706;10.384;2023-03-01T01:06:19;-0.70;99.90
18934;DHT22;9599;53.706;10.384;2023-03-01T01:08:47;-0.60;99.90
18934;DHT22;9599;53.706;10.384;2023-03-01T01:11:16;-0.70;99.90
18934;DHT22;9599;53.706;10.384;2023-03-01T01:13:45;-0.70;99.90
18934;DHT22;9599;53.706;10.384;2023-03-01T01:16:14;-0.70;99.90
18934;DHT22;9599;53.706;10.384;2023-03-01T01:18:42;-0.60;99.90
18934;DHT22;9599;53.706;10.384;2023-03-01T01:21:12;-0.70;99.90
18934;DHT22;9599;53.706;10.384;2023-03-01T01:23:43;-0.70;99.90
18934;DHT22;9599;53.706;10.384;2023-03-01T01:26:13;-0.70;99.90
18934;DHT22;9599;53.706;10.384;2023-03-01T01:28:42;-0.70;99.90
18934;DHT22;9599;53.706;10.384;2023-03-01T01:31:10;-0.70;99.90
18934;DHT22;9599;53.706;10.384;2023-03-01T01:33:38;-0.70;99.90
18934;DHT22;9599;53.706;10.384;2023-03-01T01:36:07;-0.80;99.90
18934;DHT22;9599;53.706;10.384;2023-03-01T01:38:37;-0.80;99.90
18934;DHT22;9599;53.706;10.384;2023-03-01T01:41:06;-0.80;99.90
18934;DHT22;9599;53.706;10.384;2023-03-01T01:43:38;-0.80;99.90
18934;DHT22;9599;53.706;10.384;2023-03-01T01:46:16;-0.80;99.90
18934;DHT22;9599;53.706;10.384;2023-03-01T01:48:48;-0.80;99.90
18934;DHT22;9599;53.706;10.384;2023-03-01T01:51:19;-0.80;99.90
18934;DHT22;9599;53.706;10.384;2023-03-01T01:53:50;-0.90;99.90
18934;DHT22;9599;53.706;10.384;2023-03-01T01:56:20;-0.90;99.90
18934;DHT22;9599;53.706;10.384;2023-03-01T01:58:49;-0.90;99.90
18934;DHT22;9599;53.706;10.384;2023-03-01T02:01:18;-0.90;99.90
18934;DHT22;9599;53.706;10.384;2023-03-01T02:03:46;-0.90;99.90
18934;DHT22;9599;53.706;10.384;2023-03-01T02:06:19;-0.90;99.90
18934;DHT22;9599;53.706;10.384;2023-03-01T02:08:50;-0.90;99.90
18934;DHT22;9599;53.706;10.384;2023-03-01T02:11:21;-0.90;99.90
18934;DHT22;9599;53.706;10.384;2023-03-01T02:13:50;-0.90;99.90
18934;DHT22;9599;53.706;10.384;2023-03-01T02:16:18;-0.90;99.90
18934;DHT22;9599;53.706;10.384;2023-03-01T02:18:46;-1.00;99.90
18934;DHT22;9599;53.706;10.384;2023-03-01T02:21:26;-1.00;99.90
18934;DHT22;9599;53.706;10.384;2023-03-01T02:23:56;-1.00;99.90
18934;DHT22;9599;53.706;10.384;2023-03-01T02:26:30;-1.00;99.90
18934;DHT22;9599;53.706;10.384;2023-03-01T02:29:02;-1.00;99.90
18934;DHT22;9599;53.706;10.384;2023-03-01T02:31:32;-1.00;99.90
18934;DHT22;9599;53.706;10.384;2023-03-01T02:34:13;-1.00;99.90
18934;DHT22;9599;53.706;10.384;2023-03-01T02:36:45;-1.10;99.90
18934;DHT22;9599;53.706;10.384;2023-03-01T02:39:17;-1.00;99.90
18934;DHT22;9599;53.706;10.384;2023-03-01T02:41:48;-1.10;99.90
18934;DHT22;9599;53.706;10.384;2023-03-01T02:44:18;-1.10;99.90
18934;DHT22;9599;53.706;10.384;2023-03-01T02:46:48;-1.10;99.90
18934;DHT22;9599;53.706;10.384;2023-03-01T02:49:23;-1.10;99.90
18934;DHT22;9599;53.706;10.384;2023-03-01T02:52:17;-1.10;99.90
18934;DHT22;9599;53.706;10.384;2023-03-01T02:54:52;-1.10;99.90
18934;DHT22;9599;53.706;10.384;2023-03-01T02:57:23;-1.10;99.90
18934;DHT22;9599;53.706;10.384;2023-03-01T02:59:56;-1.10;99.90
18934;DHT22;9599;53.706;10.384;2023-03-01T03:02:27;-1.10;99.90
18934;DHT22;9599;53.706;10.384;2023-03-01T03:05:14;-1.10;99.90
18934;DHT22;9599;53.706;10.384;2023-03-01T03:07:45;-1.10;99.90
18934;DHT22;9599;53.706;10.384;2023-03-01T03:10:15;-1.10;99.90
18934;DHT22;9599;53.706;10.384;2023-03-01T03:12:43;-1.20;99.90
18934;DHT22;9599;53.706;10.384;2023-03-01T03:15:12;-1.20;99.90
18934;DHT22;9599;53.706;10.384;2023-03-01T03:17:41;-1.20;99.90
18934;DHT22;9599;53.706;10.384;2023-03-01T03:20:13;-1.20;99.90
18934;DHT22;9599;53.706;10.384;2023-03-01T03:22:45;-1.20;99.90
18934;DHT22;9599;53.706;10.384;2023-03-01T03:25:13;-1.20;99.90
18934;DHT22;9599;53.706;10.384;2023-03-01T03:27:43;-1.20;99.90
18934;DHT22;9599;53.706;10.384;2023-03-01T03:30:14;-1.20;99.90
18934;DHT22;9599;53.706;10.384;2023-03-01T03:32:44;-1.20;99.90
18934;DHT22;9599;53.706;10.384;2023-03-01T03:35:20;-1.20;99.90
18934;DHT22;9599;53.706;10.384;2023-03-01T03:37:48;-1.20;99.90
18934;DHT22;9599;53.706;10.384;2023-03-01T03:40:34;-1.10;99.90
18934;DHT22;9599;53.706;10.384;2023-03-01T03:43:04;-1.10;99.90
18934;DHT22;9599;53.706;10.384;2023-03-01T03:45:34;-1.10;99.90
18934;DHT22;9599;53.706;10.384;2023-03-01T03:48:04;-1.00;99.90
18934;DHT22;9599;53.706;10.384;2023-03-01T03:50:34;-1.00;99.90
18934;DHT22;9599;53.706;10.384;2023-03-01T03:53:04;-1.00;99.90
18934;DHT22;9599;53.706;10.384;2023-03-01T03:55:32;-1.00;99.90
18934;DHT22;9599;53.706;10.384;2023-03-01T03:58:02;-0.90;99.90
18934;DHT22;9599;53.706;10.384;2023-03-01T04:00:35;-0.90;99.90
18934;DHT22;9599;53.706;10.384;2023-03-01T04:03:03;-0.90;99.90
18934;DHT22;9599;53.706;10.384;2023-03-01T04:05:32;-0.90;99.90
18934;DHT22;9599;53.706;10.384;2023-03-01T04:08:00;-0.90;99.90
18934;DHT22;9599;53.706;10.384;2023-03-01T04:10:35;-0.80;99.90
18934;DHT22;9599;53.706;10.384;2023-03-01T04:13:04;-0.80;99.90
18934;DHT22;9599;53.706;10.384;2023-03-01T04:15:33;-0.70;99.90
18934;DHT22;9599;53.706;10.384;2023-03-01T04:18:02;-0.70;99.90
18934;DHT22;9599;53.706;10.384;2023-03-01T04:20:33;-0.60;99.90
18934;DHT22;9599;53.706;10.384;2023-03-01T04:23:05;-0.50;99.90
18934;DHT22;9599;53.706;10.384;2023-03-01T04:25:40;-0.50;99.90
18934;DHT22;9599;53.706;10.384;2023-03-01T04:28:09;-0.50;99.90
18934;DHT22;9599;53.706;10.384;2023-03-01T04:30:38;-0.40;99.90
18934;DHT22;9599;53.706;10.384;2023-03-01T04:33:09;-0.40;99.90
18934;DHT22;9599;53.706;10.384;2023-03-01T04:35:38;-0.40;99.90
18934;DHT22;9599;53.706;10.384;2023-03-01T04:38:07;-0.30;99.90
18934;DHT22;9599;53.706;10.384;2023-03-01T04:40:35;-0.20;99.90
18934;DHT22;9599;53.706;10.384;2023-03-01T04:43:04;-0.10;99.90
18934;DHT22;9599;53.706;10.384;2023-03-01T04:45:32;-0.10;99.90
18934;DHT22;9599;53.706;10.384;2023-03-01T04:48:02;0.00;99.90
18934;DHT22;9599;53.706;10.384;2023-03-01T04:50:32;0.10;99.90
18934;DHT22;9599;53.706;10.384;2023-03-01T04:53:00;0.10;99.90
18934;DHT22;9599;53.706;10.384;2023-03-01T04:55:28;0.20;99.90
18934;DHT22;9599;53.706;10.384;2023-03-01T04:57:56;0.20;99.90
18934;DHT22;9599;53.706;10.384;2023-03-01T05:00:24;0.30;99.90
18934;DHT22;9599;53.706;10.384;2023-03-01T05:02:54;0.30;99.90
18934;DHT22;9599;53.706;10.384;2023-03-01T05:05:24;0.40;99.90
18934;DHT22;9599;53.706;10.384;2023-03-01T05:07:55;0.40;99.90
18934;DHT22;9599;53.706;10.384;2023-03-01T05:10:24;0.50;99.90
18934;DHT22;9599;53.706;10.384;2023-03-01T05:12:53;0.50;99.90
18934;DHT22;9599;53.706;10.384;2023-03-01T05:15:21;0.60;99.90
18934;DHT22;9599;53.706;10.384;2023-03-01T05:17:52;0.60;99.90
18934;DHT22;9599;53.706;10.384;2023-03-01T05:20:21;0.60;99.90
18934;DHT22;9599;53.706;10.384;2023-03-01T05:22:51;0.70;99.90
18934;DHT22;9599;53.706;10.384;2023-03-01T05:25:20;0.70;99.90
18934;DHT22;9599;53.706;10.384;2023-03-01T05:27:49;0.80;99.90
18934;DHT22;9599;53.706;10.384;2023-03-01T05:30:17;0.80;99.90
18934;DHT22;9599;53.706;10.384;2023-03-01T05:32:46;0.80;99.90
18934;DHT22;9599;53.706;10.384;2023-03-01T05:35:16;0.80;99.90
18934;DHT22;9599;53.706;10.384;2023-03-01T05:37:47;0.80;99.90
18934;DHT22;9599;53.706;10.384;2023-03-01T05:40:17;0.80;99.90
18934;DHT22;9599;53.706;10.384;2023-03-01T05:42:48;0.80;99.90
18934;DHT22;9599;53.706;10.384;2023-03-01T05:45:17;0.70;99.90
18934;DHT22;9599;53.706;10.384;2023-03-01T05:47:46;0.80;99.90
18934;DHT22;9599;53.706;10.384;2023-03-01T05:50:17;0.70;99.90
18934;DHT22;9599;53.706;10.384;2023-03-01T05:52:47;0.70;99.90
18934;DHT22;9599;53.706;10.384;2023-03-01T05:55:16;0.70;99.90
18934;DHT22;9599;53.706;10.384;2023-03-01T05:57:44;0.70;99.90
18934;DHT22;9599;53.706;10.384;2023-03-01T06:00:19;0.60;99.90
18934;DHT22;9599;53.706;10.384;2023-03-01T06:02:49;0.60;99.90
18934;DHT22;9599;53.706;10.384;2023-03-01T06:05:18;0.60;99.90
18934;DHT22;9599;53.706;10.384;2023-03-01T06:07:46;0.60;99.90
18934;DHT22;9599;53.706;10.384;2023-03-01T06:10:14;0.60;99.90
18934;DHT22;9599;53.706;10.384;2023-03-01T06:12:43;0.60;99.90
18934;DHT22;9599;53.706;10.384;2023-03-01T06:15:13;0.60;99.90
18934;DHT22;9599;53.706;10.384;2023-03-01T06:17:44;0.60;99.90
18934;DHT22;9599;53.706;10.384;2023-03-01T06:20:15;0.60;99.90
18934;DHT22;9599;53.706;10.384;2023-03-01T06:22:42;0.80;99.90
18934;DHT22;9599;53.706;10.384;2023-03-01T06:25:13;0.70;99.90
18934;DHT22;9599;53.706;10.384;2023-03-01T06:27:41;0.80;99.90
18934;DHT22;9599;53.706;10.384;2023-03-01T06:30:10;0.80;99.90
18934;DHT22;9599;53.706;10.384;2023-03-01T06:32:41;0.80;99.90
18934;DHT22;9599;53.706;10.384;2023-03-01T06:35:10;0.80;99.90
18934;DHT22;9599;53.706;10.384;2023-03-01T06:37:38;0.90;99.90
18934;DHT22;9599;53.706;10.384;2023-03-01T06:40:08;0.90;99.90
18934;DHT22;9599;53.706;10.384;2023-03-01T06:42:40;0.90;99.90
18934;DHT22;9599;53.706;10.384;2023-03-01T06:45:09;0.90;99.90
18934;DHT22;9599;53.706;10.384;2023-03-01T06:47:37;1.00;99.90
18934;DHT22;9599;53.706;10.384;2023-03-01T06:50:07;1.10;99.90
18934;DHT22;9599;53.706;10.384;2023-03-01T06:52:35;1.20;99.90
18934;DHT22;9599;53.706;10.384;2023-03-01T06:55:03;1.20;99.90
18934;DHT22;9599;53.706;10.384;2023-03-01T06:57:32;1.20;99.90
18934;DHT22;9599;53.706;10.384;2023-03-01T07:00:00;1.20;99.90
18934;DHT22;9599;53.706;10.384;2023-03-01T07:02:28;1.40;99.90
18934;DHT22;9599;53.706;10.384;2023-03-01T07:04:56;1.40;99.90
18934;DHT22;9599;53.706;10.384;2023-03-01T07:07:25;1.50;99.90
18934;DHT22;9599;53.706;10.384;2023-03-01T07:09:53;1.60;99.90
18934;DHT22;9599;53.706;10.384;2023-03-01T07:12:21;1.60;99.90
18934;DHT22;9599;53.706;10.384;2023-03-01T07:14:49;1.70;99.90
18934;DHT22;9599;53.706;10.384;2023-03-01T07:17:17;1.70;99.90
18934;DHT22;9599;53.706;10.384;2023-03-01T07:19:45;1.70;99.90
18934;DHT22;9599;53.706;10.384;2023-03-01T07:22:13;1.80;99.90
18934;DHT22;9599;53.706;10.384;2023-03-01T07:24:42;1.80;99.90
18934;DHT22;9599;53.706;10.384;2023-03-01T07:27:10;1.80;99.90
18934;DHT22;9599;53.706;10.384;2023-03-01T07:29:39;1.90;99.90
18934;DHT22;9599;53.706;10.384;2023-03-01T07:32:10;1.90;99.90
18934;DHT22;9599;53.706;10.384;2023-03-01T07:34:38;1.90;99.90
18934;DHT22;9599;53.706;10.384;2023-03-01T07:37:06;2.00;99.90
18934;DHT22;9599;53.706;10.384;2023-03-01T07:39:34;2.00;99.90
18934;DHT22;9599;53.706;10.384;2023-03-01T07:42:04;2.00;99.90
18934;DHT22;9599;53.706;10.384;2023-03-01T07:44:32;2.00;99.90
18934;DHT22;9599;53.706;10.384;2023-03-01T07:47:01;2.00;99.90
18934;DHT22;9599;53.706;10.384;2023-03-01T07:49:28;2.10;99.90
18934;DHT22;9599;53.706;10.384;2023-03-01T07:51:56;2.20;99.90
18934;DHT22;9599;53.706;10.384;2023-03-01T07:54:24;2.20;99.90
18934;DHT22;9599;53.706;10.384;2023-03-01T07:56:52;2.30;99.90
18934;DHT22;9599;53.706;10.384;2023-03-01T07:59:22;2.30;99.90
18934;DHT22;9599;53.706;10.384;2023-03-01T08:01:55;2.40;99.90
18934;DHT22;9599;53.706;10.384;2023-03-01T08:04:23;2.60;99.90
18934;DHT22;9599;53.706;10.384;2023-03-01T08:06:53;2.90;99.90
18934;DHT22;9599;53.706;10.384;2023-03-01T08:09:22;3.10;99.90
18934;DHT22;9599;53.706;10.384;2023-03-01T08:11:50;3.10;99.90
18934;DHT22;9599;53.706;10.384;2023-03-01T08:14:17;3.20;99.90
18934;DHT22;9599;53.706;10.384;2023-03-01T08:16:49;3.30;99.90
18934;DHT22;9599;53.706;10.384;2023-03-01T08:19:17;3.40;99.90
18934;DHT22;9599;53.706;10.384;2023-03-01T08:21:45;3.50;99.90
18934;DHT22;9599;53.706;10.384;2023-03-01T08:24:13;3.60;99.90
18934;DHT22;9599;53.706;10.384;2023-03-01T08:26:41;3.80;99.90
18934;DHT22;9599;53.706;10.384;2023-03-01T08:29:08;3.80;99.90
18934;DHT22;9599;53.706;10.384;2023-03-01T08:31:39;3.90;99.90
18934;DHT22;9599;53.706;10.384;2023-03-01T08:34:10;4.10;99.90
18934;DHT22;9599;53.706;10.384;2023-03-01T08:36:40;4.10;99.90
18934;DHT22;9599;53.706;10.384;2023-03-01T08:39:09;4.20;99.90
18934;DHT22;9599;53.706;10.384;2023-03-01T08:41:38;4.20;99.90
18934;DHT22;9599;53.706;10.384;2023-03-01T08:44:06;4.20;99.90
18934;DHT22;9599;53.706;10.384;2023-03-01T08:46:36;4.20;99.90
18934;DHT22;9599;53.706;10.384;2023-03-01T08:49:04;4.30;99.90
18934;DHT22;9599;53.706;10.384;2023-03-01T08:51:35;4.50;99.90
18934;DHT22;9599;53.706;10.384;2023-03-01T08:54:04;4.50;99.90
18934;DHT22;9599;53.706;10.384;2023-03-01T08:56:33;4.60;99.90
18934;DHT22;9599;53.706;10.384;2023-03-01T08:59:01;4.80;99.90
18934;DHT22;9599;53.706;10.384;2023-03-01T09:01:29;4.90;99.90
18934;DHT22;9599;53.706;10.384;2023-03-01T09:03:56;4.90;99.90
18934;DHT22;9599;53.706;10.384;2023-03-01T09:06:25;5.10;99.90
18934;DHT22;9599;53.706;10.384;2023-03-01T09:08:54;5.10;99.90
18934;DHT22;9599;53.706;10.384;2023-03-01T09:11:22;5.20;99.90
18934;DHT22;9599;53.706;10.384;2023-03-01T09:13:50;5.20;99.90
18934;DHT22;9599;53.706;10.384;2023-03-01T09:16:20;5.20;99.90
18934;DHT22;9599;53.706;10.384;2023-03-01T09:18:49;5.30;99.90
18934;DHT22;9599;53.706;10.384;2023-03-01T09:21:19;5.30;99.90
18934;DHT22;9599;53.706;10.384;2023-03-01T09:24:06;5.50;99.90
18934;DHT22;9599;53.706;10.384;2023-03-01T09:26:34;5.60;99.90
18934;DHT22;9599;53.706;10.384;2023-03-01T09:29:02;5.50;99.90
18934;DHT22;9599;53.706;10.384;2023-03-01T09:31:30;5.50;99.90
18934;DHT22;9599;53.706;10.384;2023-03-01T09:33:57;5.60;99.90
18934;DHT22;9599;53.706;10.384;2023-03-01T09:36:25;5.60;99.90
18934;DHT22;9599;53.706;10.384;2023-03-01T09:38:53;5.60;99.90
18934;DHT22;9599;53.706;10.384;2023-03-01T09:41:36;5.90;99.90
18934;DHT22;9599;53.706;10.384;2023-03-01T09:44:12;6.00;99.90
18934;DHT22;9599;53.706;10.384;2023-03-01T09:46:44;6.20;99.90
18934;DHT22;9599;53.706;10.384;2023-03-01T09:49:16;6.30;99.90
18934;DHT22;9599;53.706;10.384;2023-03-01T09:51:55;6.10;99.90
18934;DHT22;9599;53.706;10.384;2023-03-01T09:54:24;6.10;99.90
18934;DHT22;9599;53.706;10.384;2023-03-01T09:57:09;6.00;99.90
18934;DHT22;9599;53.706;10.384;2023-03-01T10:00:00;6.00;99.90
18934;DHT22;9599;53.706;10.384;2023-03-01T10:02:38;6.20;99.90
18934;DHT22;9599;53.706;10.384;2023-03-01T10:05:31;6.30;99.90
18934;DHT22;9599;53.706;10.384;2023-03-01T10:08:24;6.30;99.90
18934;DHT22;9599;53.706;10.384;2023-03-01T10:10:53;6.40;99.90
18934;DHT22;9599;53.706;10.384;2023-03-01T10:13:25;6.30;99.90
18934;DHT22;9599;53.706;10.384;2023-03-01T10:15:56;6.40;99.90
18934;DHT22;9599;53.706;10.384;2023-03-01T10:18:26;6.50;99.90
18934;DHT22;9599;53.706;10.384;2023-03-01T10:20:58;6.60;99.90
18934;DHT22;9599;53.706;10.384;2023-03-01T10:23:27;6.70;99.90
18934;DHT22;9599;53.706;10.384;2023-03-01T10:26:12;6.50;99.90
18934;DHT22;9599;53.706;10.384;2023-03-01T10:28:53;6.60;99.90
18934;DHT22;9599;53.706;10.384;2023-03-01T10:31:27;6.50;99.90
18934;DHT22;9599;53.706;10.384;2023-03-01T10:33:56;6.40;99.90
18934;DHT22;9599;53.706;10.384;2023-03-01T10:36:25;6.40;99.90
18934;DHT22;9599;53.706;10.384;2023-03-01T10:38:55;6.60;99.90
18934;DHT22;9599;53.706;10.384;2023-03-01T10:41:25;6.50;99.90
18934;DHT22;9599;53.706;10.384;2023-03-01T10:43:57;6.70;99.90
18934;DHT22;9599;53.706;10.384;2023-03-01T10:46:29;6.90;99.90
18934;DHT22;9599;53.706;10.384;2023-03-01T10:49:15;6.80;99.90
18934;DHT22;9599;53.706;10.384;2023-03-01T10:51:46;6.70;99.90
18934;DHT22;9599;53.706;10.384;2023-03-01T10:54:17;6.60;99.90
18934;DHT22;9599;53.706;10.384;2023-03-01T10:56:47;6.90;99.90
18934;DHT22;9599;53.706;10.384;2023-03-01T10:59:26;7.20;99.90
18934;DHT22;9599;53.706;10.384;2023-03-01T11:02:16;7.10;99.90
18934;DHT22;9599;53.706;10.384;2023-03-01T11:04:59;6.90;99.90
18934;DHT22;9599;53.706;10.384;2023-03-01T11:07:29;6.80;99.90
18934;DHT22;9599;53.706;10.384;2023-03-01T11:09:57;6.90;99.90
18934;DHT22;9599;53.706;10.384;2023-03-01T11:12:25;7.10;99.90
18934;DHT22;9599;53.706;10.384;2023-03-01T11:14:57;7.10;99.90
18934;DHT22;9599;53.706;10.384;2023-03-01T11:17:28;7.30;99.90
18934;DHT22;9599;53.706;10.384;2023-03-01T11:20:02;7.60;99.90
18934;DHT22;9599;53.706;10.384;2023-03-01T11:22:34;7.50;99.90
18934;DHT22;9599;53.706;10.384;2023-03-01T11:25:05;7.40;99.90
18934;DHT22;9599;53.706;10.384;2023-03-01T11:27:40;7.30;99.90
18934;DHT22;9599;53.706;10.384;2023-03-01T11:30:19;7.40;99.90
18934;DHT22;9599;53.706;10.384;2023-03-01T11:32:53;7.30;99.90
18934;DHT22;9599;53.706;10.384;2023-03-01T11:35:26;7.10;99.90
18934;DHT22;9599;53.706;10.384;2023-03-01T11:38:04;7.10;99.90
18934;DHT22;9599;53.706;10.384;2023-03-01T11:40:41;7.50;99.90
18934;DHT22;9599;53.706;10.384;2023-03-01T11:43:17;7.40;99.90
18934;DHT22;9599;53.706;10.384;2023-03-01T11:46:07;7.20;99.90
18934;DHT22;9599;53.706;10.384;2023-03-01T11:48:47;7.30;99.90
18934;DHT22;9599;53.706;10.384;2023-03-01T11:51:24;7.40;99.90
18934;DHT22;9599;53.706;10.384;2023-03-01T11:54:09;7.20;99.90
18934;DHT22;9599;53.706;10.384;2023-03-01T11:56:44;7.50;99.90
18934;DHT22;9599;53.706;10.384;2023-03-01T11:59:36;7.60;99.90
18934;DHT22;9599;53.706;10.384;2023-03-01T12:06:00;7.70;99.90
18934;DHT22;9599;53.706;10.384;2023-03-01T12:08:37;7.50;99.90
18934;DHT22;9599;53.706;10.384;2023-03-01T12:11:17;7.40;99.90
18934;DHT22;9599;53.706;10.384;2023-03-01T12:16:57;7.50;99.90
18934;DHT22;9599;53.706;10.384;2023-03-01T12:19:37;7.60;99.90
18934;DHT22;9599;53.706;10.384;2023-03-01T12:22:20;7.80;99.90
18934;DHT22;9599;53.706;10.384;2023-03-01T12:25:16;7.90;99.90
18934;DHT22;9599;53.706;10.384;2023-03-01T12:28:00;7.90;99.90
18934;DHT22;9599;53.706;10.384;2023-03-01T12:30:39;8.10;99.90
18934;DHT22;9599;53.706;10.384;2023-03-01T12:33:20;8.30;99.90
18934;DHT22;9599;53.706;10.384;2023-03-01T12:36:13;8.40;99.90
18934;DHT22;9599;53.706;10.384;2023-03-01T12:38:50;8.30;99.90
18934;DHT22;9599;53.706;10.384;2023-03-01T12:41:35;8.10;99.90
18934;DHT22;9599;53.706;10.384;2023-03-01T12:44:21;8.10;99.90
18934;DHT22;9599;53.706;10.384;2023-03-01T12:47:06;8.20;99.90
18934;DHT22;9599;53.706;10.384;2023-03-01T12:49:40;8.20;99.90
18934;DHT22;9599;53.706;10.384;2023-03-01T12:52:13;8.40;99.90
18934;DHT22;9599;53.706;10.384;2023-03-01T12:54:45;8.30;99.90
18934;DHT22;9599;53.706;10.384;2023-03-01T12:57:18;8.30;99.90
18934;DHT22;9599;53.706;10.384;2023-03-01T13:00:06;8.30;99.90
18934;DHT22;9599;53.706;10.384;2023-03-01T13:02:44;8.30;99.90
18934;DHT22;9599;53.706;10.384;2023-03-01T13:05:24;8.30;99.90
18934;DHT22;9599;53.706;10.384;2023-03-01T13:07:58;8.20;99.90
18934;DHT22;9599;53.706;10.384;2023-03-01T13:10:36;8.40;99.90
18934;DHT22;9599;53.706;10.384;2023-03-01T13:13:19;8.40;99.90
18934;DHT22;9599;53.706;10.384;2023-03-01T13:15:48;8.40;99.90
18934;DHT22;9599;53.706;10.384;2023-03-01T13:18:29;8.40;99.90
18934;DHT22;9599;53.706;10.384;2023-03-01T13:20:59;8.40;99.90
18934;DHT22;9599;53.706;10.384;2023-03-01T13:23:32;8.30;99.90
18934;DHT22;9599;53.706;10.384;2023-03-01T13:26:10;8.40;99.90
18934;DHT22;9599;53.706;10.384;2023-03-01T13:28:50;8.40;99.90
18934;DHT22;9599;53.706;10.384;2023-03-01T13:34:41;8.40;99.90
18934;DHT22;9599;53.706;10.384;2023-03-01T13:37:10;8.30;99.90
18934;DHT22;9599;53.706;10.384;2023-03-01T13:39:45;8.30;99.90
18934;DHT22;9599;53.706;10.384;2023-03-01T13:42:39;8.40;99.90
18934;DHT22;9599;53.706;10.384;2023-03-01T13:45:18;8.50;99.90
18934;DHT22;9599;53.706;10.384;2023-03-01T13:47:51;8.40;99.90
18934;DHT22;9599;53.706;10.384;2023-03-01T13:50:23;8.50;99.90
18934;DHT22;9599;53.706;10.384;2023-03-01T13:52:55;8.30;99.90
18934;DHT22;9599;53.706;10.384;2023-03-01T13:55:37;8.30;99.90
18934;DHT22;9599;53.706;10.384;2023-03-01T13:58:16;8.30;99.90
18934;DHT22;9599;53.706;10.384;2023-03-01T14:00:44;8.50;99.90
18934;DHT22;9599;53.706;10.384;2023-03-01T14:03:14;8.50;99.90
18934;DHT22;9599;53.706;10.384;2023-03-01T14:05:56;8.40;99.90
18934;DHT22;9599;53.706;10.384;2023-03-01T14:08:38;8.30;99.90
18934;DHT22;9599;53.706;10.384;2023-03-01T14:14:20;8.30;99.90
18934;DHT22;9599;53.706;10.384;2023-03-01T14:16:57;8.30;99.90
18934;DHT22;9599;53.706;10.384;2023-03-01T14:19:29;8.50;99.90
18934;DHT22;9599;53.706;10.384;2023-03-01T14:22:04;8.40;99.90
18934;DHT22;9599;53.706;10.384;2023-03-01T14:24:39;8.30;99.90
18934;DHT22;9599;53.706;10.384;2023-03-01T14:27:11;8.20;99.90
18934;DHT22;9599;53.706;10.384;2023-03-01T14:29:40;8.20;99.90
18934;DHT22;9599;53.706;10.384;2023-03-01T14:32:10;8.40;99.90
18934;DHT22;9599;53.706;10.384;2023-03-01T14:34:43;8.50;99.90
18934;DHT22;9599;53.706;10.384;2023-03-01T14:37:19;8.40;99.90
18934;DHT22;9599;53.706;10.384;2023-03-01T14:39:48;8.50;99.90
18934;DHT22;9599;53.706;10.384;2023-03-01T14:42:16;8.40;99.90
18934;DHT22;9599;53.706;10.384;2023-03-01T14:44:47;8.30;99.90
18934;DHT22;9599;53.706;10.384;2023-03-01T14:47:23;8.30;99.90
18934;DHT22;9599;53.706;10.384;2023-03-01T14:49:57;8.50;99.90
18934;DHT22;9599;53.706;10.384;2023-03-01T14:52:34;8.50;99.90
18934;DHT22;9599;53.706;10.384;2023-03-01T14:55:05;8.60;99.90
18934;DHT22;9599;53.706;10.384;2023-03-01T14:57:34;8.60;99.90
18934;DHT22;9599;53.706;10.384;2023-03-01T15:00:06;8.50;99.90
18934;DHT22;9599;53.706;10.384;2023-03-01T15:02:35;8.40;99.90
18934;DHT22;9599;53.706;10.384;2023-03-01T15:05:06;8.50;99.90
18934;DHT22;9599;53.706;10.384;2023-03-01T15:07:38;8.30;99.90
18934;DHT22;9599;53.706;10.384;2023-03-01T15:10:16;8.20;99.90
18934;DHT22;9599;53.706;10.384;2023-03-01T15:12:45;8.20;99.90
18934;DHT22;9599;53.706;10.384;2023-03-01T15:15:36;8.20;99.90
18934;DHT22;9599;53.706;10.384;2023-03-01T15:18:13;8.30;99.90
18934;DHT22;9599;53.706;10.384;2023-03-01T15:20:43;8.30;99.90
18934;DHT22;9599;53.706;10.384;2023-03-01T15:23:22;8.30;99.90
18934;DHT22;9599;53.706;10.384;2023-03-01T15:25:52;8.20;99.90
18934;DHT22;9599;53.706;10.384;2023-03-01T15:28:26;8.20;99.90
18934;DHT22;9599;53.706;10.384;2023-03-01T15:30:58;8.10;99.90
18934;DHT22;9599;53.706;10.384;2023-03-01T15:33:31;8.20;99.90
18934;DHT22;9599;53.706;10.384;2023-03-01T15:36:00;8.10;99.90
18934;DHT22;9599;53.706;10.384;2023-03-01T15:38:34;7.90;99.90
18934;DHT22;9599;53.706;10.384;2023-03-01T15:41:19;8.00;99.90
18934;DHT22;9599;53.706;10.384;2023-03-01T15:43:49;7.80;99.90
18934;DHT22;9599;53.706;10.384;2023-03-01T15:46:21;7.70;99.90
18934;DHT22;9599;53.706;10.384;2023-03-01T15:48:53;7.60;99.90
18934;DHT22;9599;53.706;10.384;2023-03-01T15:51:28;7.40;99.90
18934;DHT22;9599;53.706;10.384;2023-03-01T15:54:00;7.30;99.90
18934;DHT22;9599;53.706;10.384;2023-03-01T15:56:29;7.20;99.90
18934;DHT22;9599;53.706;10.384;2023-03-01T15:58:59;7.20;99.90
18934;DHT22;9599;53.706;10.384;2023-03-01T16:01:29;7.10;99.90
18934;DHT22;9599;53.706;10.384;2023-03-01T16:03:59;7.00;99.90
18934;DHT22;9599;53.706;10.384;2023-03-01T16:06:27;6.90;99.90
18934;DHT22;9599;53.706;10.384;2023-03-01T16:08:55;6.70;99.90
18934;DHT22;9599;53.706;10.384;2023-03-01T16:11:23;6.50;99.90
18934;DHT22;9599;53.706;10.384;2023-03-01T16:13:51;6.30;99.90
18934;DHT22;9599;53.706;10.384;2023-03-01T16:16:19;6.30;99.90
18934;DHT22;9599;53.706;10.384;2023-03-01T16:18:49;6.20;99.90
18934;DHT22;9599;53.706;10.384;2023-03-01T16:21:21;6.00;99.90
18934;DHT22;9599;53.706;10.384;2023-03-01T16:23:50;5.90;99.90
18934;DHT22;9599;53.706;10.384;2023-03-01T16:26:19;5.80;99.90